Hovedside
METAR-TAF:

METAR-TAF

Lufthavner :

Lodwar, Kenya

breddegrad: 03-07N, lengdegrad: 035-37E, høyde over havet: 506 m

Gjeldene værobservasjon

Denne rapporten ble laget for 1 time og 49 minutter siden, klokken 19:00 UTC
Flau vind
Temperatur 30°C
Luftfuktighet 40%
Trykk 1008 hPa
Sikt 10 km eller mer
ingen skyer under 1500 m og ingen bygeskyer

METAR: HKLO 301900Z 00000KT CAVOK 30/15 Q1008

Tid: 23:49 (20:49 UTC)


TAF: fraværende

Værobservasjoner og værvarsel for over 4000 flyplasser (METAR- og TAF-rapporter).

Tilgjengelige stasjoner er representert av de røde og gule prikkene på kartet.

Hold musepekeren over prikken for å se navnet på stasjonen.

Klikk så for å se værobservasjoner og -varsler.

For å forandre kartet kan du klikke på den grønne knappen med svart kryss for å zoome inn, på den grønne knappen med strek for å zoome ut, eller på de grønne pilene for å se tilstøtende kart.


METAR-TAF: